createdAt,value
2019-02-25T00:04:37.850Z,12.47
2019-02-25T00:12:46.563Z,13.03
2019-02-25T00:15:26.970Z,11.43
2019-02-25T00:20:56.623Z,9.30
2019-02-25T00:26:19.433Z,9.47
2019-02-25T00:29:00.469Z,9.97
2019-02-25T00:34:30.303Z,10.23
2019-02-25T00:37:11.541Z,9.00
2019-02-25T00:39:52.797Z,13.60
2019-02-25T00:42:33.390Z,14.03
2019-02-25T00:45:13.867Z,9.83
2019-02-25T00:47:54.688Z,10.80
2019-02-25T00:50:35.445Z,10.70
2019-02-25T00:53:04.453Z,13.53
2019-02-25T00:55:52.590Z,10.03
2019-02-25T00:58:40.637Z,9.87
2019-02-25T01:01:21.291Z,10.10
2019-02-25T01:04:01.848Z,8.83
2019-02-25T01:06:42.713Z,9.13
2019-02-25T01:09:23.318Z,9.10
2019-02-25T01:14:45.957Z,11.80
2019-02-25T01:17:26.547Z,10.50
2019-02-25T01:20:07.526Z,12.10
2019-02-25T01:22:48.445Z,8.93
2019-02-25T01:25:28.927Z,9.57
2019-02-25T01:28:10.107Z,11.37
2019-02-25T01:30:53.791Z,12.77
2019-02-25T01:33:34.621Z,13.27
2019-02-25T01:36:15.373Z,12.50
2019-02-25T01:38:56.083Z,12.37
2019-02-25T01:41:37.035Z,12.30
2019-02-25T01:44:17.817Z,12.13
2019-02-25T01:46:58.522Z,10.07
2019-02-25T01:49:39.118Z,12.50
2019-02-25T01:52:20.312Z,9.00
2019-02-25T01:55:01.084Z,12.73
2019-02-25T01:57:41.561Z,13.97
2019-02-25T02:00:22.290Z,9.90
2019-02-25T02:03:03.537Z,13.40
2019-02-25T02:05:44.344Z,12.20
2019-02-25T02:08:25.015Z,10.10
2019-02-25T02:11:05.485Z,12.33
2019-02-25T02:13:46.285Z,13.30
2019-02-25T02:16:26.829Z,11.13
2019-02-25T02:19:07.686Z,10.53
2019-02-25T02:21:48.202Z,10.40
2019-02-25T02:24:28.981Z,9.60
2019-02-25T02:27:09.871Z,10.63
2019-02-25T02:29:50.209Z,11.33
2019-02-25T02:35:16.800Z,10.37
2019-02-25T02:37:57.376Z,11.73
2019-02-25T02:40:38.263Z,9.57
2019-02-25T02:43:19.073Z,10.70
2019-02-25T02:45:59.638Z,12.20
2019-02-25T02:48:40.397Z,11.63
2019-02-25T02:51:21.138Z,12.20
2019-02-25T02:54:01.604Z,12.00
2019-02-25T02:56:42.345Z,12.17
2019-02-25T02:59:22.947Z,13.63
2019-02-25T03:02:03.977Z,14.10
2019-02-25T03:04:45.153Z,13.40
2019-02-25T03:07:25.843Z,13.27
2019-02-25T03:10:07.058Z,14.50
2019-02-25T03:12:47.773Z,13.80
2019-02-25T03:18:10.597Z,10.87
2019-02-25T03:23:38.136Z,11.97
2019-02-25T03:26:18.754Z,10.87
2019-02-25T03:28:59.301Z,16.53
2019-02-25T03:34:25.959Z,14.83
2019-02-25T03:37:06.687Z,18.77
2019-02-25T03:39:35.620Z,19.73
2019-02-25T03:42:23.758Z,16.50
2019-02-25T03:45:12.586Z,16.10
2019-02-25T03:48:00.773Z,15.10
2019-02-25T03:50:49.138Z,11.90
2019-02-25T03:53:37.543Z,12.00
2019-02-25T03:56:26.154Z,11.40
2019-02-25T03:59:14.283Z,13.53
2019-02-25T04:01:54.877Z,22.50
2019-02-25T04:04:35.649Z,19.77
2019-02-25T04:07:16.922Z,25.47
2019-02-25T04:09:46.169Z,18.43
2019-02-25T04:12:34.319Z,21.37
2019-02-25T04:18:33.560Z,16.00
2019-02-25T04:21:21.610Z,10.00
2019-02-25T04:24:09.750Z,15.53
2019-02-25T04:26:57.869Z,14.50
2019-02-25T04:29:45.944Z,10.83
2019-02-25T04:32:36.078Z,11.87
2019-02-25T04:35:24.148Z,14.90
2019-02-25T04:38:12.534Z,11.90
2019-02-25T04:41:00.791Z,12.33
2019-02-25T04:43:48.937Z,17.40
2019-02-25T04:46:36.999Z,15.57
2019-02-25T04:49:25.172Z,17.63
2019-02-25T04:52:13.514Z,13.83
2019-02-25T04:55:01.722Z,16.10
2019-02-25T04:57:50.018Z,13.23
2019-02-25T05:00:38.604Z,15.33
2019-02-25T05:03:26.664Z,14.73
2019-02-25T05:06:14.812Z,12.83
2019-02-25T05:09:02.881Z,14.50
2019-02-25T05:11:51.013Z,16.53
2019-02-25T05:14:39.085Z,14.73
2019-02-25T05:17:27.392Z,15.87
2019-02-25T05:20:15.514Z,12.27
2019-02-25T05:23:03.646Z,12.90
2019-02-25T05:25:51.789Z,14.33
2019-02-25T05:28:39.861Z,14.80
2019-02-25T05:31:27.985Z,15.90
2019-02-25T05:34:16.126Z,21.03
2019-02-25T05:37:04.484Z,17.37
2019-02-25T05:39:52.627Z,17.00
2019-02-25T05:42:40.877Z,16.07
2019-02-25T05:45:29.046Z,16.80
2019-02-25T05:48:17.337Z,13.80
2019-02-25T05:51:05.465Z,15.60
2019-02-25T05:53:53.593Z,22.57
2019-02-25T05:56:43.676Z,17.23
2019-02-25T05:59:31.537Z,39.47
2019-02-25T06:02:12.710Z,26.57
2019-02-25T06:04:53.576Z,22.13
2019-02-25T06:07:34.710Z,40.13
2019-02-25T06:10:15.321Z,28.47
2019-02-25T06:12:54.473Z,31.40
2019-02-25T06:15:42.609Z,22.77
2019-02-25T06:18:30.743Z,25.80
2019-02-25T06:21:18.890Z,22.57
2019-02-25T06:24:07.029Z,33.97
2019-02-25T06:26:55.174Z,27.10
2019-02-25T06:29:43.303Z,26.60
2019-02-25T06:32:31.448Z,30.17
2019-02-25T06:35:19.593Z,29.53
2019-02-25T06:38:07.717Z,21.73
2019-02-25T06:40:55.857Z,29.40
2019-02-25T06:43:43.984Z,21.73
2019-02-25T06:46:32.130Z,23.23
2019-02-25T06:49:20.254Z,30.37
2019-02-25T06:52:08.394Z,28.80
2019-02-25T06:54:56.521Z,23.50
2019-02-25T06:57:44.681Z,21.13
2019-02-25T07:00:32.836Z,24.70
2019-02-25T07:09:08.254Z,20.53
2019-02-25T07:11:48.765Z,22.60
2019-02-25T07:17:38.566Z,17.83
2019-02-25T07:23:08.899Z,18.37
2019-02-25T07:28:51.182Z,22.07
2019-02-25T07:31:41.166Z,23.70
2019-02-25T07:40:51.161Z,23.33
2019-02-25T07:43:53.713Z,21.50
2019-02-25T07:46:59.382Z,20.80
2019-02-25T07:53:14.274Z,17.00
2019-02-25T07:58:47.082Z,15.77
2019-02-25T08:04:52.221Z,13.97
2019-02-25T08:11:15.131Z,15.80
2019-02-25T08:14:23.199Z,16.23
2019-02-25T08:20:26.158Z,13.60
2019-02-25T08:23:24.137Z,15.63
2019-02-25T08:26:31.309Z,17.97
2019-02-25T08:29:38.497Z,17.83
2019-02-25T08:32:38.349Z,16.93
2019-02-25T08:36:00.679Z,13.83
2019-02-25T08:39:07.767Z,14.03
2019-02-25T08:42:14.763Z,13.53
2019-02-25T08:45:22.866Z,13.40
2019-02-25T08:48:30.127Z,13.80
2019-02-25T08:51:18.242Z,13.83
2019-02-25T08:54:06.394Z,16.77
2019-02-25T08:56:54.529Z,16.40
2019-02-25T08:59:42.670Z,14.68
2019-02-25T09:02:23.370Z,12.25
2019-02-25T09:05:04.254Z,13.60
2019-02-25T09:07:44.941Z,14.50
2019-02-25T09:10:25.733Z,13.38
2019-02-25T09:13:06.775Z,14.05
2019-02-25T09:15:47.389Z,15.05
2019-02-25T09:18:28.275Z,11.95
2019-02-25T09:21:09.073Z,12.25
2019-02-25T09:23:49.757Z,10.85
2019-02-25T09:26:31.025Z,16.23
2019-02-25T09:29:11.941Z,12.37
2019-02-25T09:31:52.462Z,12.25
2019-02-25T09:34:31.723Z,14.28
2019-02-25T09:37:19.825Z,12.00
2019-02-25T09:40:09.181Z,11.00
2019-02-25T09:42:57.890Z,10.28
2019-02-25T09:45:46.036Z,11.35
2019-02-25T09:48:34.169Z,10.70
2019-02-25T09:51:22.566Z,10.90
2019-02-25T09:54:10.698Z,10.72
2019-02-25T09:56:58.757Z,10.08
2019-02-25T09:59:46.821Z,15.35
2019-02-25T10:02:27.454Z,10.10
2019-02-25T10:05:08.196Z,10.10
2019-02-25T10:07:49.656Z,9.58
2019-02-25T10:10:30.917Z,10.23
2019-02-25T10:15:53.606Z,10.50
2019-02-25T10:18:34.655Z,17.05
2019-02-25T10:21:15.666Z,12.68
2019-02-25T10:23:56.445Z,12.37
2019-02-25T10:26:37.815Z,10.78
2019-02-25T10:29:18.814Z,10.70
2019-02-25T10:32:00.515Z,14.05
2019-02-25T10:34:42.699Z,12.03
2019-02-25T10:37:23.524Z,10.38
2019-02-25T10:40:02.774Z,9.20
2019-02-25T10:42:50.955Z,11.75
2019-02-25T10:45:41.061Z,11.43
2019-02-25T10:48:29.326Z,7.50
2019-02-25T10:51:17.477Z,8.95
2019-02-25T10:54:05.725Z,9.73
2019-02-25T10:57:12.972Z,11.85
2019-02-25T11:00:05.570Z,9.13
2019-02-25T11:02:48.953Z,9.35
2019-02-25T11:05:30.591Z,7.97
2019-02-25T11:08:14.632Z,7.80
2019-02-25T11:10:59.498Z,11.68
2019-02-25T11:13:40.801Z,8.85
2019-02-25T11:16:21.925Z,11.03
2019-02-25T11:19:03.022Z,7.00
2019-02-25T11:21:44.269Z,5.65
2019-02-25T11:24:25.407Z,6.10
2019-02-25T11:27:07.361Z,5.95
2019-02-25T11:29:48.410Z,6.17
2019-02-25T11:32:36.870Z,3.77
2019-02-25T11:35:25.005Z,5.45
2019-02-25T11:38:13.296Z,4.60
2019-02-25T11:41:01.926Z,4.50
2019-02-25T11:43:52.970Z,6.22
2019-02-25T11:46:41.755Z,5.35
2019-02-25T11:49:30.032Z,6.72
2019-02-25T11:52:18.504Z,5.47
2019-02-25T11:55:07.396Z,5.03
2019-02-25T11:57:55.803Z,4.67
2019-02-25T12:00:37.007Z,5.70
2019-02-25T12:03:18.123Z,8.38
2019-02-25T12:08:45.409Z,5.35
2019-02-25T12:11:24.565Z,7.67
2019-02-25T12:14:12.868Z,8.13
2019-02-25T12:17:01.666Z,4.92
2019-02-25T12:19:49.824Z,6.53
2019-02-25T12:22:19.179Z,6.92
2019-02-25T12:25:08.035Z,8.25
2019-02-25T12:27:56.442Z,6.03
2019-02-25T12:30:44.649Z,6.62
2019-02-25T12:33:32.931Z,8.15
2019-02-25T12:36:21.126Z,4.95
2019-02-25T12:39:09.266Z,6.60
2019-02-25T12:41:57.516Z,6.10
2019-02-25T12:44:45.701Z,6.12
2019-02-25T12:47:33.845Z,6.20
2019-02-25T12:50:22.043Z,5.60
2019-02-25T12:53:10.294Z,5.80
2019-02-25T12:55:58.522Z,6.28
2019-02-25T12:58:46.609Z,7.37
2019-02-25T13:01:27.715Z,4.33
2019-02-25T13:04:08.494Z,4.20
2019-02-25T13:06:49.073Z,3.75
2019-02-25T13:09:29.634Z,8.33
2019-02-25T13:12:10.719Z,3.30
2019-02-25T13:14:51.361Z,4.50
2019-02-25T13:17:32.058Z,5.33
2019-02-25T13:20:12.560Z,4.47
2019-02-25T13:22:52.990Z,5.05
2019-02-25T13:25:33.693Z,4.42
2019-02-25T13:28:15.054Z,5.90
2019-02-25T13:30:56.253Z,3.50
2019-02-25T13:33:36.985Z,2.70
2019-02-25T13:36:18.374Z,4.72
2019-02-25T13:38:59.147Z,3.65
2019-02-25T13:41:39.627Z,4.30
2019-02-25T13:44:20.901Z,4.45
2019-02-25T13:47:01.518Z,3.08
2019-02-25T13:49:42.111Z,2.60
2019-02-25T13:52:22.826Z,4.72
2019-02-25T13:55:03.287Z,5.22
2019-02-25T13:57:43.780Z,3.72
2019-02-25T14:00:24.349Z,4.65
2019-02-25T14:02:53.470Z,3.72
2019-02-25T14:05:22.772Z,3.42
2019-02-25T14:07:51.868Z,4.87
2019-02-25T14:10:21.541Z,3.85
2019-02-25T14:12:50.932Z,3.20
2019-02-25T14:15:20.904Z,5.17
2019-02-25T14:17:49.985Z,4.58
2019-02-25T14:20:19.363Z,3.85
2019-02-25T14:22:48.859Z,4.20
2019-02-25T14:25:19.973Z,3.80
2019-02-25T14:27:49.065Z,4.30
2019-02-25T14:30:20.313Z,4.00
2019-02-25T14:32:53.034Z,4.33
2019-02-25T14:35:20.357Z,4.47
2019-02-25T14:37:49.550Z,3.60
2019-02-25T14:40:21.266Z,3.50
2019-02-25T14:42:52.000Z,4.75
2019-02-25T14:45:21.963Z,3.55
2019-02-25T14:47:55.308Z,3.60
2019-02-25T14:50:22.734Z,4.20
2019-02-25T14:52:51.834Z,4.85
2019-02-25T14:55:20.891Z,2.55
2019-02-25T14:57:49.901Z,4.83
2019-02-25T15:00:24.294Z,6.12
2019-02-25T15:02:53.870Z,5.08
2019-02-25T15:05:24.141Z,4.28
2019-02-25T15:07:53.450Z,4.08
2019-02-25T15:10:26.694Z,2.42
2019-02-25T15:12:56.492Z,2.50
2019-02-25T15:15:24.636Z,4.03
2019-02-25T15:17:53.888Z,4.53
2019-02-25T15:20:24.056Z,2.42
2019-02-25T15:22:53.908Z,2.65
2019-02-25T15:25:23.156Z,2.85
2019-02-25T15:27:52.087Z,5.33
2019-02-25T15:30:25.097Z,2.98
2019-02-25T15:32:56.992Z,2.80
2019-02-25T15:35:26.882Z,3.17
2019-02-25T15:37:57.647Z,2.22
2019-02-25T15:40:27.275Z,2.65
2019-02-25T15:43:04.110Z,5.87
2019-02-25T15:45:35.443Z,4.25
2019-02-25T15:48:05.580Z,4.30
2019-02-25T15:50:35.156Z,3.72
2019-02-25T15:53:05.566Z,3.20
2019-02-25T15:55:36.342Z,4.53
2019-02-25T15:58:05.454Z,3.67
2019-02-25T16:00:36.686Z,3.35
2019-02-25T16:03:06.646Z,2.83
2019-02-25T16:05:38.774Z,2.75
2019-02-25T16:08:08.258Z,3.37
2019-02-25T16:10:37.439Z,3.85
2019-02-25T16:13:11.203Z,4.92
2019-02-25T16:15:37.649Z,4.10
2019-02-25T16:18:06.747Z,4.42
2019-02-25T16:20:35.737Z,3.37
2019-02-25T16:23:07.666Z,2.37
2019-02-25T16:25:36.400Z,4.37
2019-02-25T16:28:05.967Z,6.17
2019-02-25T16:30:36.142Z,2.98
2019-02-25T16:33:07.264Z,4.03
2019-02-25T16:35:37.273Z,4.43
2019-02-25T16:38:07.423Z,5.70
2019-02-25T16:40:38.393Z,4.17
2019-02-25T16:43:09.710Z,6.37
2019-02-25T16:45:40.205Z,13.03
2019-02-25T16:48:08.849Z,10.37
2019-02-25T16:50:39.771Z,10.07
2019-02-25T16:53:10.871Z,13.30
2019-02-25T16:55:40.478Z,11.70
2019-02-25T16:58:13.066Z,7.00
2019-02-25T17:00:41.732Z,10.13
2019-02-25T17:03:13.123Z,7.77
2019-02-25T17:05:42.903Z,9.20
2019-02-25T17:08:14.805Z,6.90
2019-02-25T17:10:43.805Z,10.90
2019-02-25T17:13:14.914Z,9.00
2019-02-25T17:15:45.990Z,7.77
2019-02-25T17:18:15.786Z,8.40
2019-02-25T17:20:45.269Z,9.73
2019-02-25T17:23:15.399Z,16.70
2019-02-25T17:25:44.406Z,11.43
2019-02-25T17:28:15.313Z,11.17
2019-02-25T17:30:45.615Z,7.77
2019-02-25T17:33:15.374Z,9.60
2019-02-25T17:35:45.326Z,6.77
2019-02-25T17:38:15.013Z,6.90
2019-02-25T17:40:44.005Z,7.03
2019-02-25T17:43:13.973Z,10.90
2019-02-25T17:45:43.919Z,7.63
2019-02-25T17:48:14.153Z,7.30
2019-02-25T17:50:44.059Z,9.63
2019-02-25T17:53:13.142Z,9.80
2019-02-25T17:55:42.432Z,6.17
2019-02-25T17:58:13.006Z,8.00
2019-02-25T18:00:42.634Z,6.83
2019-02-25T18:03:11.677Z,8.10
2019-02-25T18:05:43.288Z,13.33
2019-02-25T18:08:13.299Z,10.10
2019-02-25T18:10:45.131Z,9.33
2019-02-25T18:13:13.797Z,11.77
2019-02-25T18:15:45.155Z,15.57
2019-02-25T18:18:15.242Z,9.63
2019-02-25T18:20:45.328Z,10.87
2019-02-25T18:23:14.440Z,12.07
2019-02-25T18:25:43.497Z,19.73
2019-02-25T18:28:13.058Z,25.10
2019-02-25T18:30:43.677Z,21.97
2019-02-25T18:33:13.389Z,26.00
2019-02-25T18:35:43.431Z,24.93
2019-02-25T18:38:13.370Z,18.40
2019-02-25T18:40:44.058Z,20.97
2019-02-25T18:43:13.205Z,15.33
2019-02-25T18:45:43.111Z,12.13
2019-02-25T18:48:12.875Z,14.20
2019-02-25T18:50:45.104Z,14.13
2019-02-25T18:53:13.054Z,13.17
2019-02-25T18:55:42.491Z,15.23
2019-02-25T18:58:12.600Z,17.77
2019-02-25T19:00:44.693Z,13.37
2019-02-25T19:03:13.680Z,13.87
2019-02-25T19:05:42.933Z,19.17
2019-02-25T19:08:17.170Z,11.60
2019-02-25T19:10:48.085Z,14.93
2019-02-25T19:13:20.188Z,16.40
2019-02-25T19:15:50.807Z,16.33
2019-02-25T19:18:19.654Z,14.57
2019-02-25T19:20:48.757Z,16.73
2019-02-25T19:23:18.017Z,18.80
2019-02-25T19:25:47.468Z,19.03
2019-02-25T19:28:18.895Z,22.30
2019-02-25T19:30:47.614Z,20.90
2019-02-25T19:33:20.481Z,23.90
2019-02-25T19:35:47.650Z,24.30
2019-02-25T19:38:17.777Z,23.07
2019-02-25T19:40:51.285Z,19.63
2019-02-25T19:43:17.753Z,21.73
2019-02-25T19:45:47.092Z,17.23
2019-02-25T19:48:16.518Z,17.90
2019-02-25T19:50:51.200Z,14.33
2019-02-25T19:53:19.424Z,16.03
2019-02-25T19:55:49.347Z,14.90
2019-02-25T19:58:18.139Z,16.27
2019-02-25T20:00:50.716Z,19.97
2019-02-25T20:03:18.282Z,12.57
2019-02-25T20:05:48.928Z,10.70
2019-02-25T20:08:18.105Z,11.93
2019-02-25T20:10:47.134Z,11.53
2019-02-25T20:13:16.396Z,12.33
2019-02-25T20:15:46.779Z,12.10
2019-02-25T20:18:16.683Z,11.87
2019-02-25T20:20:46.990Z,15.23
2019-02-25T20:23:16.237Z,16.80
2019-02-25T20:25:48.496Z,16.87
2019-02-25T20:28:18.137Z,19.37
2019-02-25T20:30:47.741Z,20.57
2019-02-25T20:33:17.893Z,15.57
2019-02-25T20:35:51.042Z,20.47
2019-02-25T20:38:17.601Z,22.43
2019-02-25T20:40:49.021Z,18.77
2019-02-25T20:43:19.616Z,20.57
2019-02-25T20:45:50.224Z,16.67
2019-02-25T20:48:18.726Z,16.90
2019-02-25T20:50:47.738Z,16.90
2019-02-25T20:53:16.986Z,28.60
2019-02-25T20:55:45.852Z,26.93
2019-02-25T20:58:16.875Z,16.03
2019-02-25T21:00:46.587Z,21.60
2019-02-25T21:03:18.336Z,16.43
2019-02-25T21:05:47.255Z,14.87
2019-02-25T21:08:17.382Z,15.60
2019-02-25T21:10:47.473Z,15.63
2019-02-25T21:13:16.396Z,18.30
2019-02-25T21:15:45.628Z,14.20
2019-02-25T21:18:14.653Z,14.83
2019-02-25T21:20:45.235Z,15.70
2019-02-25T21:23:14.825Z,17.13
2019-02-25T21:25:44.397Z,22.27
2019-02-25T21:28:13.417Z,18.47
2019-02-25T21:30:44.155Z,16.37
2019-02-25T21:33:15.625Z,15.43
2019-02-25T21:35:43.998Z,17.20
2019-02-25T21:38:12.937Z,16.93
2019-02-25T21:40:43.839Z,12.80
2019-02-25T21:43:16.290Z,15.83
2019-02-25T21:45:46.095Z,24.27
2019-02-25T21:48:14.096Z,15.17
2019-02-25T21:50:43.114Z,17.80
2019-02-25T21:53:15.605Z,16.00
2019-02-25T21:55:43.001Z,16.37
2019-02-25T22:01:41.121Z,12.97
2019-02-25T22:04:13.184Z,12.13
2019-02-25T22:06:41.079Z,13.37
2019-02-25T22:09:10.090Z,12.07
2019-02-25T22:11:39.094Z,14.87
2019-02-25T22:14:08.355Z,11.27
2019-02-25T22:16:43.845Z,13.37
2019-02-25T22:19:10.412Z,13.67
2019-02-25T22:21:39.087Z,13.30
2019-02-25T22:24:09.630Z,10.80
2019-02-25T22:26:38.712Z,11.50
2019-02-25T22:29:07.916Z,16.73
2019-02-25T22:31:37.704Z,13.57
2019-02-25T22:34:08.829Z,14.67
2019-02-25T22:36:41.574Z,16.30
2019-02-25T22:39:09.444Z,14.53
2019-02-25T22:41:40.104Z,13.27
2019-02-25T22:44:10.610Z,13.70
2019-02-25T22:46:41.718Z,16.10
2019-02-25T22:49:10.577Z,16.07
2019-02-25T22:51:39.741Z,17.07
2019-02-25T22:54:10.357Z,17.80
2019-02-25T22:56:39.283Z,15.40
2019-02-25T22:59:08.710Z,17.63
2019-02-25T23:01:37.801Z,13.70
2019-02-25T23:04:06.909Z,17.00
2019-02-25T23:06:39.706Z,17.87
2019-02-25T23:09:12.242Z,22.53
2019-02-25T23:11:42.146Z,19.97
2019-02-25T23:14:11.556Z,24.27
2019-02-25T23:16:43.592Z,24.00
2019-02-25T23:19:13.660Z,19.50
2019-02-25T23:21:43.307Z,20.73
2019-02-25T23:24:12.249Z,17.37
2019-02-25T23:26:41.112Z,18.23
2019-02-25T23:29:10.362Z,20.37
2019-02-25T23:31:39.310Z,22.33
2019-02-25T23:34:10.286Z,20.83
2019-02-25T23:36:43.011Z,22.33
2019-02-25T23:39:10.196Z,19.53
2019-02-25T23:41:41.359Z,17.17
2019-02-25T23:44:12.503Z,15.40
2019-02-25T23:46:40.546Z,18.40
2019-02-25T23:49:09.406Z,17.53
2019-02-25T23:51:39.453Z,18.03
2019-02-25T23:54:09.504Z,16.27
2019-02-25T23:56:39.734Z,18.10
2019-02-25T23:59:10.741Z,18.60
